Terminal Aerodrome Forecast
Issued by NWS Jackson, MS

Home | Current Version | Previous Version | Text Only | Print | Product List | Glossary On
Versions: 1 2 3 4 5 6 7 8 9 10 11 12 13 14 15 16 17
000
FTUS44 KJAN 192320
TAFMEI
TAF
KMEI 192320Z 2000/2024 30003KT P6SM SCT060
     FM201000 00000KT 4SM BR FEW250
     FM201400 25003KT P6SM FEW035
     FM202000 22004KT P6SM VCTS SCT050CB=

USA.gov is the U.S. government's official web portal to all federal, state and local government web resources and services.